Time;durP1;ratioP1;P1;durP2;ratioP2;P2;SDS_P1;SDS_P2;PMS_P1;PMS_P2;Temp;Humidity;BMP_temperature;BMP_pressure;BME280_temperature;BME280_humidity;BME280_pressure;Samples;Min_cycle;Max_cycle;Signal;HPM_P1;HPM_P2
2021/11/04 00:01:44;;;;;;;15.88;9.15;;;;;;;;;;5001781;28;20060;-72
2021/11/04 00:04:10;;;;;;;19.25;10.00;;;;;;;;;;4999800;28;20042;-71
2021/11/04 00:06:36;;;;;;;18.33;10.20;;;;;;;;;;4997805;28;20034;-71
2021/11/04 00:09:02;;;;;;;23.27;11.32;;;;;;;;;;5003866;28;20025;-71
2021/11/04 00:11:28;;;;;;;18.58;10.50;;;;;;;;;;5009554;28;20035;-71
2021/11/04 00:13:54;;;;;;;22.63;10.57;;;;;;;;;;5081119;28;20025;-71
2021/11/04 00:16:20;;;;;;;19.30;10.27;;;;;;;;;;5012857;28;20132;-71
2021/11/04 00:18:46;;;;;;;17.85;10.10;;;;;;;;;;5006455;28;20037;-72
2021/11/04 00:21:12;;;;;;;17.67;9.55;;;;;;;;;;5001531;28;20038;-71
2021/11/04 00:23:38;;;;;;;19.55;10.52;;;;;;;;;;4997210;28;20061;-71
2021/11/04 00:26:05;;;;;;;18.45;10.40;;;;;;;;;;5000452;28;20439;-71
2021/11/04 00:28:31;;;;;;;18.00;9.90;;;;;;;;;;5005764;28;20026;-71
2021/11/04 00:30:57;;;;;;;17.35;10.30;;;;;;;;;;5010226;28;20803;-71
2021/11/04 00:33:23;;;;;;;18.33;9.98;;;;;;;;;;5013928;28;20537;-71
2021/11/04 00:35:49;;;;;;;19.83;10.70;;;;;;;;;;5009411;28;20401;-71
2021/11/04 00:38:15;;;;;;;22.80;11.00;;;;;;;;;;5004338;28;20061;-71
2021/11/04 00:40:41;;;;;;;21.60;11.60;;;;;;;;;;4998961;28;20065;-71
2021/11/04 00:43:07;;;;;;;21.20;10.15;;;;;;;;;;4997285;28;20112;-71
2021/11/04 00:45:33;;;;;;;21.65;10.95;;;;;;;;;;5002741;28;20056;-71
2021/11/04 00:47:59;;;;;;;21.20;10.88;;;;;;;;;;5001014;28;20030;-71
2021/11/04 00:50:25;;;;;;;21.05;10.85;;;;;;;;;;5065122;28;20110;-71
2021/11/04 00:52:51;;;;;;;21.38;11.48;;;;;;;;;;4999196;28;20042;-71
2021/11/04 00:55:17;;;;;;;21.77;11.18;;;;;;;;;;5072223;28;20106;-71
2021/11/04 00:57:43;;;;;;;21.08;11.13;;;;;;;;;;5009089;28;20061;-71
2021/11/04 01:00:09;;;;;;;21.52;11.00;;;;;;;;;;5014048;28;20195;-72
2021/11/04 01:02:35;;;;;;;23.77;11.50;;;;;;;;;;5010063;28;20040;-72
2021/11/04 01:05:01;;;;;;;23.65;11.75;;;;;;;;;;5004952;28;20082;-71
2021/11/04 01:07:27;;;;;;;20.27;10.63;;;;;;;;;;4999987;28;20087;-71
2021/11/04 01:09:53;;;;;;;21.63;10.15;;;;;;;;;;4997569;28;20457;-72
2021/11/04 01:12:19;;;;;;;20.13;10.82;;;;;;;;;;5001536;28;20043;-71
2021/11/04 01:14:45;;;;;;;21.77;10.85;;;;;;;;;;5005582;28;20094;-72
2021/11/04 01:17:11;;;;;;;21.38;11.20;;;;;;;;;;5011779;28;20041;-71
2021/11/04 01:19:37;;;;;;;26.92;10.65;;;;;;;;;;5013828;28;20504;-72
2021/11/04 01:22:03;;;;;;;18.52;10.70;;;;;;;;;;5007151;28;20030;-71
2021/11/04 01:24:29;;;;;;;26.52;10.73;;;;;;;;;;5002722;28;20040;-71
2021/11/04 01:26:55;;;;;;;20.85;11.27;;;;;;;;;;4996779;28;20095;-72
2021/11/04 01:29:21;;;;;;;16.73;10.07;;;;;;;;;;4998053;28;20052;-71
2021/11/04 01:31:47;;;;;;;22.42;12.07;;;;;;;;;;5004477;28;20103;-71
2021/11/04 01:34:13;;;;;;;18.67;10.20;;;;;;;;;;5008173;28;20037;-71
2021/11/04 01:36:39;;;;;;;22.02;10.80;;;;;;;;;;5012038;28;20597;-71
2021/11/04 01:39:05;;;;;;;21.52;10.95;;;;;;;;;;5072806;28;20029;-71
2021/11/04 01:41:31;;;;;;;21.60;10.95;;;;;;;;;;5005332;28;20041;-72
2021/11/04 01:43:57;;;;;;;19.90;11.15;;;;;;;;;;5007082;28;20056;-71
2021/11/04 01:46:23;;;;;;;20.80;10.20;;;;;;;;;;5004032;28;20085;-71
2021/11/04 01:48:49;;;;;;;22.13;11.05;;;;;;;;;;5000956;28;20434;-72
2021/11/04 01:51:15;;;;;;;20.77;11.25;;;;;;;;;;5006139;28;20038;-72
2021/11/04 01:53:41;;;;;;;21.33;11.63;;;;;;;;;;5011176;28;20134;-71
2021/11/04 01:56:07;;;;;;;19.42;10.27;;;;;;;;;;5002306;28;20191;-72
2021/11/04 01:58:33;;;;;;;20.88;11.95;;;;;;;;;;5001948;28;20621;-71
2021/11/04 02:00:59;;;;;;;21.98;12.07;;;;;;;;;;5008379;28;20875;-72
2021/11/04 02:03:25;;;;;;;24.48;11.95;;;;;;;;;;5012627;28;20033;-71
2021/11/04 02:05:51;;;;;;;22.02;11.85;;;;;;;;;;5011252;28;20030;-73
2021/11/04 02:08:17;;;;;;;24.95;11.35;;;;;;;;;;5075075;28;20040;-72
2021/11/04 02:10:43;;;;;;;19.55;10.55;;;;;;;;;;5002527;28;20034;-72
2021/11/04 02:13:09;;;;;;;19.98;11.60;;;;;;;;;;4993295;28;20049;-72
2021/11/04 02:15:35;;;;;;;19.77;11.02;;;;;;;;;;5000331;28;20108;-73
2021/11/04 02:18:01;;;;;;;20.77;11.05;;;;;;;;;;5071933;28;20048;-73
2021/11/04 02:20:27;;;;;;;24.70;11.50;;;;;;;;;;4997907;28;20094;-72
2021/11/04 02:22:53;;;;;;;18.85;10.57;;;;;;;;;;4996236;28;20034;-71
2021/11/04 02:25:19;;;;;;;23.02;11.13;;;;;;;;;;5000233;28;20026;-73
2021/11/04 02:27:45;;;;;;;23.27;11.48;;;;;;;;;;5004070;28;20064;-72
2021/11/04 02:30:11;;;;;;;31.63;14.52;;;;;;;;;;4998995;28;20087;-72
2021/11/04 02:32:37;;;;;;;21.52;11.10;;;;;;;;;;5076953;28;20413;-72
2021/11/04 02:35:03;;;;;;;23.58;11.98;;;;;;;;;;5007422;28;20035;-72
2021/11/04 02:37:29;;;;;;;27.05;13.23;;;;;;;;;;5004585;28;20037;-72
2021/11/04 02:39:55;;;;;;;24.08;12.93;;;;;;;;;;5013240;28;20025;-72
2021/11/04 02:42:21;;;;;;;26.90;14.27;;;;;;;;;;5013335;28;20086;-72
2021/11/04 02:44:47;;;;;;;27.83;13.10;;;;;;;;;;5008689;28;20111;-72
2021/11/04 02:47:13;;;;;;;24.98;12.90;;;;;;;;;;5003382;28;20392;-72
2021/11/04 02:49:41;;;;;;;24.50;13.02;;;;;;;;;;4997992;28;20038;-72
2021/11/04 02:52:07;;;;;;;30.05;15.10;;;;;;;;;;4999564;28;20090;-72
2021/11/04 02:54:33;;;;;;;27.23;14.60;;;;;;;;;;5005764;28;20043;-72
2021/11/04 02:56:59;;;;;;;30.08;14.75;;;;;;;;;;5010783;28;20067;-72
2021/11/04 02:59:25;;;;;;;29.60;13.65;;;;;;;;;;5015366;28;20485;-72
2021/11/04 03:01:51;;;;;;;28.30;14.85;;;;;;;;;;5010690;28;20029;-72
2021/11/04 03:04:17;;;;;;;31.80;14.38;;;;;;;;;;5004769;28;20578;-72
2021/11/04 03:06:43;;;;;;;24.40;13.05;;;;;;;;;;4997601;28;20025;-72
2021/11/04 03:09:09;;;;;;;27.23;13.90;;;;;;;;;;5011236;28;20033;-72
2021/11/04 03:11:35;;;;;;;31.15;14.93;;;;;;;;;;5008657;28;20040;-72
2021/11/04 03:14:01;;;;;;;32.65;15.52;;;;;;;;;;5072500;28;20030;-72
2021/11/04 03:16:27;;;;;;;28.17;15.18;;;;;;;;;;4999263;28;20034;-74
2021/11/04 03:18:53;;;;;;;33.38;15.32;;;;;;;;;;4998203;28;20137;-72
2021/11/04 03:21:19;;;;;;;32.92;15.93;;;;;;;;;;5072235;28;20468;-72
2021/11/04 03:23:45;;;;;;;28.48;14.30;;;;;;;;;;5000756;28;20026;-72
2021/11/04 03:26:11;;;;;;;31.65;15.77;;;;;;;;;;4997129;28;20064;-72
2021/11/04 03:28:37;;;;;;;29.58;14.60;;;;;;;;;;4999746;28;20037;-72
2021/11/04 03:31:03;;;;;;;31.15;15.75;;;;;;;;;;5005421;28;20041;-72
2021/11/04 03:33:29;;;;;;;29.65;15.85;;;;;;;;;;5001098;28;20075;-72
2021/11/04 03:35:55;;;;;;;33.75;16.95;;;;;;;;;;4998022;28;20026;-72
2021/11/04 03:38:21;;;;;;;31.27;15.77;;;;;;;;;;5001413;28;20044;-72
2021/11/04 03:40:47;;;;;;;33.90;17.13;;;;;;;;;;5003359;28;20026;-72
2021/11/04 03:43:13;;;;;;;29.42;15.07;;;;;;;;;;5001834;28;20041;-72
2021/11/04 03:45:39;;;;;;;35.30;16.85;;;;;;;;;;5058556;28;20030;-72
2021/11/04 03:48:05;;;;;;;32.88;17.05;;;;;;;;;;5067413;28;20902;-72
2021/11/04 03:50:31;;;;;;;35.33;16.92;;;;;;;;;;5007163;28;20029;-72
2021/11/04 03:52:57;;;;;;;32.25;17.63;;;;;;;;;;5072952;28;20133;-72
2021/11/04 03:55:25;;;;;;;33.50;17.63;;;;;;;;;;4998236;28;20040;-72
2021/11/04 03:57:51;;;;;;;42.05;18.75;;;;;;;;;;5003451;28;20768;-72
2021/11/04 04:00:18;;;;;;;38.53;17.48;;;;;;;;;;5009996;28;20145;-72
2021/11/04 04:02:44;;;;;;;31.52;15.85;;;;;;;;;;5081277;28;20037;-72
2021/11/04 04:05:10;;;;;;;32.25;16.92;;;;;;;;;;5011474;28;20476;-72
2021/11/04 04:07:36;;;;;;;34.05;17.38;;;;;;;;;;5006378;28;20897;-72
2021/11/04 04:10:02;;;;;;;34.50;16.77;;;;;;;;;;5007902;28;20603;-72
2021/11/04 04:12:29;;;;;;;32.60;17.55;;;;;;;;;;4994172;28;20026;-72
2021/11/04 04:14:55;;;;;;;29.10;16.33;;;;;;;;;;5000598;28;20033;-72
2021/11/04 04:17:22;;;;;;;31.08;17.13;;;;;;;;;;5005352;28;20033;-72
2021/11/04 04:19:48;;;;;;;36.22;18.33;;;;;;;;;;5079992;28;20437;-72
2021/11/04 04:22:14;;;;;;;36.92;18.30;;;;;;;;;;5015056;28;20036;-72
2021/11/04 04:24:40;;;;;;;35.45;18.02;;;;;;;;;;5009680;28;20413;-72
2021/11/04 04:27:06;;;;;;;39.28;19.67;;;;;;;;;;5002722;28;20036;-72
2021/11/04 04:29:32;;;;;;;39.17;18.95;;;;;;;;;;4999118;28;20042;-72
2021/11/04 04:31:59;;;;;;;44.35;20.70;;;;;;;;;;4998687;28;20090;-72
2021/11/04 04:34:25;;;;;;;38.50;19.63;;;;;;;;;;5002847;28;20045;-72
2021/11/04 04:36:51;;;;;;;43.85;20.77;;;;;;;;;;5076102;28;20794;-72
2021/11/04 04:39:17;;;;;;;42.55;21.02;;;;;;;;;;5012978;28;20068;-72
2021/11/04 04:41:43;;;;;;;41.88;21.35;;;;;;;;;;5011563;28;20346;-72
2021/11/04 04:44:09;;;;;;;39.92;20.95;;;;;;;;;;5007008;28;20034;-72
2021/11/04 04:46:35;;;;;;;41.65;21.77;;;;;;;;;;5000947;28;20204;-72
2021/11/04 04:49:01;;;;;;;45.08;21.70;;;;;;;;;;4996461;28;20040;-72
2021/11/04 04:51:27;;;;;;;41.45;22.60;;;;;;;;;;5000004;28;20424;-72
2021/11/04 04:53:53;;;;;;;44.85;23.65;;;;;;;;;;5005970;28;20034;-72
2021/11/04 04:56:19;;;;;;;43.15;22.77;;;;;;;;;;5011375;28;20489;-72
2021/11/04 04:58:45;;;;;;;44.38;22.30;;;;;;;;;;5012428;28;20079;-72
2021/11/04 05:01:11;;;;;;;44.17;22.25;;;;;;;;;;5009065;28;20054;-72
2021/11/04 05:03:37;;;;;;;53.95;23.80;;;;;;;;;;5002963;28;20029;-72
2021/11/04 05:06:03;;;;;;;51.13;25.33;;;;;;;;;;4998714;28;20037;-72
2021/11/04 05:08:29;;;;;;;49.67;23.88;;;;;;;;;;4998312;28;20030;-72
2021/11/04 05:10:55;;;;;;;52.05;25.50;;;;;;;;;;5008464;28;20041;-72
2021/11/04 05:13:21;;;;;;;50.50;25.52;;;;;;;;;;5004381;28;20767;-72
2021/11/04 05:15:47;;;;;;;50.28;26.05;;;;;;;;;;5007176;28;20107;-72
2021/11/04 05:18:13;;;;;;;53.17;26.33;;;;;;;;;;4999343;28;20037;-72
2021/11/04 05:20:39;;;;;;;57.05;27.35;;;;;;;;;;5012827;28;20066;-72
2021/11/04 05:23:05;;;;;;;59.55;27.35;;;;;;;;;;5005964;28;20041;-71
2021/11/04 05:25:31;;;;;;;59.72;28.15;;;;;;;;;;5013727;28;20847;-72
2021/11/04 05:27:57;;;;;;;55.63;27.77;;;;;;;;;;5000961;28;20065;-72
2021/11/04 05:30:23;;;;;;;58.78;28.92;;;;;;;;;;5012234;28;20033;-72
2021/11/04 05:32:49;;;;;;;63.65;30.80;;;;;;;;;;5009937;28;20041;-72
2021/11/04 05:35:15;;;;;;;68.95;29.80;;;;;;;;;;5007155;28;20032;-72
2021/11/04 05:37:41;;;;;;;62.05;29.27;;;;;;;;;;5009828;28;20047;-72
2021/11/04 05:40:07;;;;;;;63.13;29.45;;;;;;;;;;5007261;28;20041;-72
2021/11/04 05:42:33;;;;;;;62.15;28.92;;;;;;;;;;5003482;28;20032;-72
2021/11/04 05:44:59;;;;;;;66.78;31.25;;;;;;;;;;5000481;28;20128;-72
2021/11/04 05:47:25;;;;;;;68.93;31.80;;;;;;;;;;5006080;28;20063;-72
2021/11/04 05:49:51;;;;;;;68.28;30.67;;;;;;;;;;5009540;28;20436;-72
2021/11/04 05:52:17;;;;;;;61.85;29.48;;;;;;;;;;5003484;28;20033;-72
2021/11/04 05:54:43;;;;;;;61.95;29.65;;;;;;;;;;5003497;28;20095;-72
2021/11/04 05:57:09;;;;;;;66.53;30.92;;;;;;;;;;5008146;28;20041;-72
2021/11/04 05:59:35;;;;;;;68.35;30.70;;;;;;;;;;5002782;28;20048;-72
2021/11/04 06:02:01;;;;;;;60.10;27.80;;;;;;;;;;5000083;28;20065;-73
2021/11/04 06:04:34;;;;;;;63.47;29.23;;;;;;;;;;5002615;28;20034;-72
2021/11/04 06:07:00;;;;;;;63.88;30.20;;;;;;;;;;5002315;28;20058;-72
2021/11/04 06:09:26;;;;;;;68.63;29.52;;;;;;;;;;5005132;28;20080;-72
2021/11/04 06:11:52;;;;;;;66.20;29.80;;;;;;;;;;5013809;28;20026;-71
2021/11/04 06:14:18;;;;;;;63.60;29.08;;;;;;;;;;5007468;28;20494;-71
2021/11/04 06:16:44;;;;;;;69.22;31.20;;;;;;;;;;5009780;28;20527;-72
2021/11/04 06:19:10;;;;;;;62.47;30.20;;;;;;;;;;5012583;28;20125;-72
2021/11/04 06:21:36;;;;;;;64.07;29.67;;;;;;;;;;5006888;28;20057;-72
2021/11/04 06:24:02;;;;;;;66.88;29.88;;;;;;;;;;5008427;28;20029;-76
2021/11/04 06:26:28;;;;;;;67.25;30.05;;;;;;;;;;5012980;28;20181;-72
2021/11/04 06:28:54;;;;;;;67.80;31.00;;;;;;;;;;5007891;28;20510;-70
2021/11/04 06:31:20;;;;;;;66.45;29.17;;;;;;;;;;5007515;28;20124;-71
2021/11/04 06:33:46;;;;;;;64.35;28.67;;;;;;;;;;5009724;28;20737;-71
2021/11/04 06:36:11;;;;;;;66.63;29.15;;;;;;;;;;5011753;28;20792;-71
2021/11/04 06:38:37;;;;;;;71.28;29.77;;;;;;;;;;5006762;28;20102;-74
2021/11/04 06:41:03;;;;;;;74.93;31.30;;;;;;;;;;5014731;28;20038;-74
2021/11/04 06:43:29;;;;;;;66.75;29.27;;;;;;;;;;5007562;28;20030;-74
2021/11/04 06:45:55;;;;;;;65.18;29.92;;;;;;;;;;5007388;28;20067;-71
2021/11/04 06:48:21;;;;;;;66.70;30.60;;;;;;;;;;4997689;28;20030;-72
2021/11/04 06:50:47;;;;;;;70.28;30.85;;;;;;;;;;5010286;28;20783;-72
2021/11/04 06:53:13;;;;;;;66.03;28.95;;;;;;;;;;5009136;28;20038;-72
2021/11/04 06:55:40;;;;;;;71.22;30.30;;;;;;;;;;5012366;28;20033;-71
2021/11/04 06:58:06;;;;;;;67.47;29.45;;;;;;;;;;5015734;28;20159;-69
2021/11/04 07:00:32;;;;;;;65.18;29.63;;;;;;;;;;5010414;28;20938;-67
2021/11/04 07:02:58;;;;;;;70.00;30.83;;;;;;;;;;5004071;28;20045;-69
2021/11/04 07:05:24;;;;;;;71.90;31.50;;;;;;;;;;5012280;28;20341;-71
2021/11/04 07:07:53;;;;;;;72.40;30.48;;;;;;;;;;5011594;28;20033;-69
2021/11/04 07:10:19;;;;;;;73.63;30.15;;;;;;;;;;5077587;28;20800;-70
2021/11/04 07:12:45;;;;;;;75.05;31.05;;;;;;;;;;5011490;28;20074;-70
2021/11/04 07:15:11;;;;;;;73.88;30.90;;;;;;;;;;4999654;28;20133;-72
2021/11/04 07:17:37;;;;;;;79.82;31.70;;;;;;;;;;5005759;28;20042;-71
2021/11/04 07:20:03;;;;;;;76.38;31.77;;;;;;;;;;5008244;28;20033;-70
2021/11/04 07:22:29;;;;;;;67.95;29.27;;;;;;;;;;5006707;28;20111;-69
2021/11/04 07:24:55;;;;;;;75.88;31.55;;;;;;;;;;5014391;28;20452;-69
2021/11/04 07:27:21;;;;;;;79.97;33.28;;;;;;;;;;5010242;28;20065;-68
2021/11/04 07:29:47;;;;;;;74.95;31.90;;;;;;;;;;5004779;28;20029;-70
2021/11/04 07:32:13;;;;;;;78.13;31.65;;;;;;;;;;5000865;28;20059;-69
2021/11/04 07:34:39;;;;;;;79.47;33.75;;;;;;;;;;5007987;28;20045;-69
2021/11/04 07:37:05;;;;;;;91.93;35.17;;;;;;;;;;5004341;28;20046;-69
2021/11/04 07:39:31;;;;;;;76.18;32.65;;;;;;;;;;5003862;28;20397;-68
2021/11/04 07:41:57;;;;;;;77.90;33.55;;;;;;;;;;5007778;28;20078;-68
2021/11/04 07:44:23;;;;;;;85.22;35.05;;;;;;;;;;5012413;28;20034;-68
2021/11/04 07:46:49;;;;;;;81.40;33.10;;;;;;;;;;5008978;28;20033;-68
2021/11/04 07:49:15;;;;;;;86.50;37.08;;;;;;;;;;5002106;28;20026;-68
2021/11/04 07:51:44;;;;;;;83.57;34.53;;;;;;;;;;5001545;28;20038;-69
2021/11/04 07:54:10;;;;;;;82.18;34.55;;;;;;;;;;5005794;28;20077;-71
2021/11/04 07:56:36;;;;;;;75.20;33.08;;;;;;;;;;5008458;28;20514;-69
2021/11/04 07:59:01;;;;;;;84.10;35.13;;;;;;;;;;5014181;28;20398;-71
2021/11/04 08:01:27;;;;;;;83.95;34.53;;;;;;;;;;5012261;28;20041;-69
2021/11/04 08:03:53;;;;;;;93.07;36.45;;;;;;;;;;5004133;28;20129;-68
2021/11/04 08:06:19;;;;;;;87.85;36.10;;;;;;;;;;5054723;28;20724;-68
2021/11/04 08:08:46;;;;;;;80.15;34.35;;;;;;;;;;5069257;28;20120;-69
2021/11/04 08:11:12;;;;;;;88.80;34.95;;;;;;;;;;4997947;28;20709;-69
2021/11/04 08:13:39;;;;;;;96.32;36.22;;;;;;;;;;5009065;28;20648;-70
2021/11/04 08:16:05;;;;;;;92.25;36.25;;;;;;;;;;5003793;28;20045;-70
2021/11/04 08:18:31;;;;;;;84.93;35.33;;;;;;;;;;4998105;28;20045;-70
2021/11/04 08:20:57;;;;;;;95.85;36.50;;;;;;;;;;5008455;28;20033;-70
2021/11/04 08:23:23;;;;;;;86.22;34.95;;;;;;;;;;5009270;28;20782;-69
2021/11/04 08:25:49;;;;;;;95.07;38.58;;;;;;;;;;5011433;28;20030;-69
2021/11/04 08:28:15;;;;;;;80.38;33.90;;;;;;;;;;5008856;28;20508;-69
2021/11/04 08:30:41;;;;;;;93.57;36.13;;;;;;;;;;5011390;28;20572;-67
2021/11/04 08:33:07;;;;;;;96.22;37.63;;;;;;;;;;5008522;28;20033;-69
2021/11/04 08:35:33;;;;;;;106.05;39.75;;;;;;;;;;5007258;28;20037;-69
2021/11/04 08:37:59;;;;;;;108.88;40.33;;;;;;;;;;5011298;28;20092;-69
2021/11/04 08:40:25;;;;;;;98.18;37.92;;;;;;;;;;5008199;28;20037;-63
2021/11/04 08:42:51;;;;;;;112.28;42.03;;;;;;;;;;5011360;28;20034;-63
2021/11/04 08:45:17;;;;;;;117.43;42.13;;;;;;;;;;5005882;28;20038;-63
2021/11/04 08:47:43;;;;;;;101.30;39.72;;;;;;;;;;5082254;28;20519;-63
2021/11/04 08:50:09;;;;;;;99.28;36.58;;;;;;;;;;5075192;28;20712;-63
2021/11/04 08:52:35;;;;;;;113.00;40.20;;;;;;;;;;5005594;28;20048;-63
2021/11/04 08:55:01;;;;;;;108.38;39.97;;;;;;;;;;5009715;28;20044;-63
2021/11/04 08:57:28;;;;;;;106.90;41.75;;;;;;;;;;4999469;28;20083;-63
2021/11/04 08:59:54;;;;;;;108.57;40.92;;;;;;;;;;5008602;28;20042;-64
2021/11/04 09:02:21;;;;;;;92.93;38.17;;;;;;;;;;5006791;28;20144;-64
2021/11/04 09:04:47;;;;;;;110.65;40.28;;;;;;;;;;5000988;28;20040;-64
2021/11/04 09:07:14;;;;;;;107.82;40.33;;;;;;;;;;5009758;28;20029;-64
2021/11/04 09:09:39;;;;;;;105.47;37.80;;;;;;;;;;5009135;28;20044;-64
2021/11/04 09:12:06;;;;;;;102.65;38.92;;;;;;;;;;5010769;28;20034;-64
2021/11/04 09:14:32;;;;;;;106.28;39.83;;;;;;;;;;5000971;28;20038;-63
2021/11/04 09:16:58;;;;;;;103.55;39.42;;;;;;;;;;5012076;28;20042;-65
2021/11/04 09:19:24;;;;;;;113.68;42.65;;;;;;;;;;5009706;28;20125;-63
2021/11/04 09:21:50;;;;;;;111.22;39.75;;;;;;;;;;5013225;28;20025;-64
2021/11/04 09:24:16;;;;;;;106.55;39.63;;;;;;;;;;5005473;28;20040;-64
2021/11/04 09:26:42;;;;;;;104.50;36.58;;;;;;;;;;5008890;28;20639;-64
2021/11/04 09:29:08;;;;;;;100.28;38.03;;;;;;;;;;5009922;28;20045;-64
2021/11/04 09:31:34;;;;;;;104.18;38.28;;;;;;;;;;5011095;28;20040;-64
2021/11/04 09:34:00;;;;;;;88.38;36.17;;;;;;;;;;5006251;28;20034;-65
2021/11/04 09:36:28;;;;;;;91.88;36.83;;;;;;;;;;5004908;28;20030;-64
2021/11/04 09:38:54;;;;;;;103.88;37.75;;;;;;;;;;5010407;28;20106;-64
2021/11/04 09:41:20;;;;;;;100.63;39.63;;;6.80;99.90;;;;;;5000546;28;20538;-64
2021/11/04 09:43:46;;;;;;;84.32;32.92;;;;;;;;;;5003032;28;20060;-64
2021/11/04 09:46:12;;;;;;;89.57;35.17;;;;;;;;;;5012296;28;20071;-64
2021/11/04 09:48:38;;;;;;;95.82;34.45;;;;;;;;;;5013604;28;20036;-64
2021/11/04 09:51:04;;;;;;;92.53;33.70;;;;;;;;;;5006597;28;20109;-64
2021/11/04 09:53:30;;;;;;;77.60;31.73;;;;;;;;;;5013815;28;20493;-64
2021/11/04 09:55:56;;;;;;;84.40;34.05;;;;;;;;;;5077285;28;20034;-64
2021/11/04 09:58:22;;;;;;;81.32;33.78;;;;;;;;;;5006975;28;20103;-64
2021/11/04 10:00:48;;;;;;;75.78;31.33;;;;;;;;;;5014885;28;20485;-63
2021/11/04 10:03:14;;;;;;;88.78;33.75;;;;;;;;;;5011536;28;20470;-63
2021/11/04 10:05:40;;;;;;;85.22;33.92;;;;;;;;;;5013463;28;20218;-62
2021/11/04 10:08:06;;;;;;;75.22;30.23;;;;;;;;;;5014856;28;20033;-63
2021/11/04 10:10:32;;;;;;;74.20;29.15;;;;;;;;;;5003195;28;20091;-62
2021/11/04 10:12:58;;;;;;;74.53;29.13;;;;;;;;;;5009388;28;20128;-62
2021/11/04 10:15:24;;;;;;;76.10;31.50;;;;;;;;;;5011135;28;20145;-62
2021/11/04 10:17:50;;;;;;;87.13;31.33;;;;;;;;;;5016410;28;20051;-63
2021/11/04 10:20:16;;;;;;;70.15;28.48;;;;;;;;;;5011996;28;20033;-63
2021/11/04 10:22:42;;;;;;;77.55;31.30;;;;;;;;;;5012490;28;20111;-61
2021/11/04 10:25:08;;;;;;;81.50;30.38;;;;;;;;;;5012872;28;20038;-61
2021/11/04 10:27:34;;;;;;;69.80;27.27;;;;;;;;;;5011866;28;20108;-62
2021/11/04 10:30:00;;;;;;;71.05;26.52;;;;;;;;;;5014347;28;20094;-64
2021/11/04 10:32:26;;;;;;;65.25;27.50;;;;;;;;;;5016186;28;20810;-64
2021/11/04 10:34:52;;;;;;;69.95;27.40;;;;;;;;;;5075798;28;20466;-64
2021/11/04 10:37:19;;;;;;;73.28;28.67;;;;;;;;;;5001806;28;20076;-63
2021/11/04 10:39:44;;;;;;;76.45;35.20;;;;;;;;;;5008280;28;20053;-64
2021/11/04 10:42:11;;;;;;;68.70;27.15;;;;;;;;;;5008944;28;20029;-64
2021/11/04 10:44:37;;;;;;;62.70;25.40;;;;;;;;;;5080895;28;20136;-63
2021/11/04 10:47:03;;;;;;;61.60;27.25;;;;;;;;;;5014329;28;20065;-64
2021/11/04 10:49:29;;;;;;;66.55;25.45;;;;;;;;;;5013149;28;20033;-64
2021/11/04 10:51:56;;;;;;;70.32;29.13;;;;;;;;;;5059348;28;20038;-64
2021/11/04 10:54:22;;;;;;;68.75;28.15;;;;;;;;;;5016484;28;20065;-64
2021/11/04 10:56:48;;;;;;;62.55;27.02;;;;;;;;;;5013590;28;20129;-63
2021/11/04 10:59:14;;;;;;;66.05;27.23;;;;;;;;;;5010371;28;20130;-64
2021/11/04 11:01:43;;;;;;;79.50;30.98;;;;;;;;;;5012652;28;20481;-64
2021/11/04 11:04:09;;;;;;;68.15;30.15;;;;;;;;;;5008096;28;20034;-64
2021/11/04 11:06:35;;;;;;;64.97;28.00;;;;;;;;;;5003710;28;20113;-64
2021/11/04 11:09:01;;;;;;;87.57;37.33;;;;;;;;;;5013204;28;20684;-63
2021/11/04 11:11:27;;;;;;;66.55;28.25;;;;;;;;;;5007744;28;20037;-63
2021/11/04 11:13:53;;;;;;;58.15;23.73;;;;;;;;;;5005898;28;20076;-63
2021/11/04 11:16:19;;;;;;;58.97;24.85;;;;;;;;;;5004224;28;20548;-64
2021/11/04 11:18:45;;;;;;;57.13;24.77;;;;;;;;;;5014007;28;20029;-64
2021/11/04 11:21:11;;;;;;;47.53;19.95;;;;;;;;;;5006416;28;21003;-64
2021/11/04 11:23:37;;;;;;;52.67;22.13;;;;;;;;;;5002469;28;20033;-64
2021/11/04 11:26:04;;;;;;;50.20;21.67;;;;;;;;;;5075919;28;20030;-63
2021/11/04 11:28:30;;;;;;;48.55;20.38;;;;;;;;;;5011109;28;20050;-64
2021/11/04 11:30:56;;;;;;;48.53;20.55;;;;;;;;;;5010231;28;20805;-64
2021/11/04 11:33:22;;;;;;;53.58;22.23;;;;;;;;;;5005771;28;20041;-64
2021/11/04 11:35:48;;;;;;;51.83;22.60;;;;;;;;;;5003294;28;20033;-63
2021/11/04 11:38:14;;;;;;;52.38;23.70;;;;;;;;;;5009146;28;20420;-63
2021/11/04 11:40:41;;;;;;;62.70;24.98;;;;;;;;;;5003682;28;20034;-62
2021/11/04 11:43:14;;;;;;;48.03;21.02;;;;;;;;;;5006459;28;20514;-62
2021/11/04 11:45:40;;;;;;;47.40;20.98;;;;;;;;;;5006182;28;20053;-62
2021/11/04 11:48:06;;;;;;;49.55;20.67;;;;;;;;;;5013114;28;20034;-62
2021/11/04 11:50:32;;;;;;;58.05;21.05;;;;;;;;;;5014595;28;20029;-63
2021/11/04 11:52:59;;;;;;;53.35;21.02;;;;;;;;;;5008750;28;20080;-63
2021/11/04 11:55:25;;;;;;;47.10;19.60;;;;;;;;;;5006909;28;20033;-63
2021/11/04 11:57:53;;;;;;;63.83;22.10;;;;;;;;;;5069368;28;20094;-63
2021/11/04 12:00:19;;;;;;;48.08;20.05;;;;;;;;;;5005677;28;20026;-63
2021/11/04 12:02:53;;;;;;;63.58;23.20;;;;;;;;;;5005095;28;20040;-63
2021/11/04 12:05:19;;;;;;;61.92;21.60;;;;;;;;;;5071701;28;20022;-71
2021/11/04 12:07:45;;;;;;;55.25;20.67;;;;;;;;;;5000512;28;20033;-71
2021/11/04 12:10:11;;;;;;;53.47;20.98;;;;;;;;;;5009186;28;20042;-71
2021/11/04 12:12:37;;;;;;;100.22;41.17;;;;;;;;;;5071642;28;20322;-71
2021/11/04 12:15:04;;;;;;;76.60;31.67;;;;;;;;;;5009982;28;20137;-71
2021/11/04 12:17:30;;;;;;;86.07;36.05;;;;;;;;;;5000248;28;20054;-72
2021/11/04 12:19:59;;;;;;;82.07;31.88;;;;;;;;;;5001080;28;20037;-70
2021/11/04 12:22:25;;;;;;;217.35;91.70;;;;;;;;;;5008369;28;20077;-68
2021/11/04 12:24:51;;;;;;;111.00;45.60;;;;;;;;;;5013449;28;20409;-68
2021/11/04 12:27:17;;;;;;;127.82;49.00;;;;;;;;;;5013215;28;20029;-71
2021/11/04 12:29:43;;;;;;;96.80;35.33;;;;;;;;;;5004853;28;20058;-71
2021/11/04 12:32:09;;;;;;;90.50;37.67;;;;;;;;;;5008252;28;20026;-71
2021/11/04 12:34:35;;;;;;;75.00;32.90;;;;;;;;;;5010916;28;20033;-71
2021/11/04 12:37:02;;;;;;;59.78;28.05;;;;;;;;;;5008783;28;20037;-71
2021/11/04 12:39:28;;;;;;;60.53;26.67;;;;;;;;;;5008731;28;20052;-71
2021/11/04 12:41:53;;;;;;;67.63;30.23;;;;;;;;;;5001642;28;20030;-71
2021/11/04 12:44:19;;;;;;;72.70;29.85;;;;;;;;;;5001282;28;20060;-71
2021/11/04 12:46:48;;;;;;;111.38;43.80;;;;;;;;;;5003658;28;20040;-71
2021/11/04 12:49:14;;;;;;;79.00;32.25;;;;;;;;;;5004226;28;20042;-70
2021/11/04 12:51:41;;;;;;;96.95;44.47;;;;;;;;;;5012416;28;20045;-71
2021/11/04 12:54:07;;;;;;;94.05;40.00;;;;;;;;;;5081837;28;20041;-72
2021/11/04 12:56:34;;;;;;;79.82;36.28;;;;;;;;;;5011816;28;20450;-69
2021/11/04 12:59:00;;;;;;;92.15;36.72;;;;;;;;;;5005526;28;20033;-70
2021/11/04 13:01:26;;;;;;;93.90;38.80;;;;;;;;;;5080772;28;20059;-71
2021/11/04 13:03:52;;;;;;;61.42;24.02;;;;;;;;;;5010211;28;20044;-71
2021/11/04 13:06:19;;;;;;;55.10;23.92;;;;;;;;;;5011575;28;20030;-71
2021/11/04 13:08:45;;;;;;;62.33;24.92;;;;;;;;;;5004402;28;20046;-71
2021/11/04 13:11:11;;;;;;;81.90;33.55;;;;;;;;;;5067459;28;20042;-71
2021/11/04 13:13:38;;;;;;;81.50;34.72;;;;;;;;;;5001365;28;20034;-69
2021/11/04 13:16:04;;;;;;;92.45;35.80;;;;;;;;;;5004858;28;20033;-69
2021/11/04 13:18:30;;;;;;;74.18;30.95;;;;;;;;;;5004603;28;20757;-70
2021/11/04 13:20:56;;;;;;;66.18;26.40;;;;;;;;;;4996686;28;20113;-71
2021/11/04 13:23:22;;;;;;;53.67;24.80;;;;;;;;;;5010200;28;20036;-71
2021/11/04 13:25:48;;;;;;;66.88;24.63;;;;;;;;;;5004431;28;20263;-70
2021/11/04 13:28:14;;;;;;;72.40;26.95;;;;;;;;;;5010020;28;20029;-69
2021/11/04 13:30:40;;;;;;;63.22;25.70;;;;;;;;;;5011023;28;20037;-69
2021/11/04 13:33:06;;;;;;;79.53;30.60;;;;;;;;;;5008846;28;20614;-69
2021/11/04 13:35:32;;;;;;;76.35;30.13;;;;;;;;;;5003864;28;20453;-68
2021/11/04 13:37:58;;;;;;;75.18;32.00;;;;;;;;;;5007903;28;20054;-68
2021/11/04 13:40:24;;;;;;;68.45;30.88;;;;;;;;;;5006436;28;20690;-70
2021/11/04 13:42:51;;;;;;;174.05;64.38;;;;;;;;;;5009566;28;20036;-71
2021/11/04 13:45:19;;;;;;;107.53;37.78;;;;;;;;;;5004186;28;20163;-71
2021/11/04 13:47:45;;;;;;;143.20;49.63;;;;;;;;;;4996322;28;20042;-71
2021/11/04 13:50:12;;;;;;;158.30;55.83;;;;;;;;;;5065621;28;20033;-71
2021/11/04 13:52:38;;;;;;;138.18;54.38;;;;;;;;;;5005714;28;20393;-72
2021/11/04 13:55:04;;;;;;;121.85;47.45;;;;;;;;;;5073839;28;20863;-71
2021/11/04 13:57:30;;;;;;;107.30;39.25;;;;;;;;;;5007785;28;20038;-71
2021/11/04 13:59:57;;;;;;;113.78;42.65;;;;;;;;;;5008689;28;20868;-71
2021/11/04 14:02:23;;;;;;;108.40;42.63;;;;;;;;;;5005466;28;20046;-72
2021/11/04 14:04:50;;;;;;;119.18;47.47;;;;;;;;;;5010415;28;20133;-72
2021/11/04 14:07:16;;;;;;;91.90;36.78;;;;;;;;;;5008511;28;20090;-70
2021/11/04 14:09:43;;;;;;;113.15;38.92;;;;;;;;;;5076707;28;20038;-71